sensor_id;sensor_type;location;lat;lon;timestamp;pressure;altitude;pressure_sealevel;temperature;humidity
72892;BME280;61032;50.782;6.818;2023-04-09T00:00:07;101436.94;;;8.87;77.76
72892;BME280;61032;50.782;6.818;2023-04-09T00:01:09;101441.00;;;8.90;78.17
72892;BME280;61032;50.782;6.818;2023-04-09T00:02:10;101440.72;;;8.91;77.49
72892;BME280;61032;50.782;6.818;2023-04-09T00:03:10;101429.47;;;8.93;77.75
72892;BME280;61032;50.782;6.818;2023-04-09T00:04:10;101438.19;;;8.95;77.57
72892;BME280;61032;50.782;6.818;2023-04-09T00:05:11;101433.31;;;8.92;77.46
72892;BME280;61032;50.782;6.818;2023-04-09T00:06:11;101428.03;;;8.95;77.91
72892;BME280;61032;50.782;6.818;2023-04-09T00:07:12;101433.44;;;9.01;77.15
72892;BME280;61032;50.782;6.818;2023-04-09T00:08:12;101432.03;;;9.03;77.29
72892;BME280;61032;50.782;6.818;2023-04-09T00:09:12;101434.56;;;9.00;77.09
72892;BME280;61032;50.782;6.818;2023-04-09T00:10:13;101428.78;;;9.01;76.74
72892;BME280;61032;50.782;6.818;2023-04-09T00:11:13;101440.34;;;8.98;76.68
72892;BME280;61032;50.782;6.818;2023-04-09T00:12:13;101436.25;;;8.95;76.95
72892;BME280;61032;50.782;6.818;2023-04-09T00:13:14;101439.28;;;8.94;77.00
72892;BME280;61032;50.782;6.818;2023-04-09T00:14:15;101429.75;;;8.91;77.45
72892;BME280;61032;50.782;6.818;2023-04-09T00:15:15;101428.13;;;8.90;77.30
72892;BME280;61032;50.782;6.818;2023-04-09T00:16:16;101430.56;;;8.92;77.28
72892;BME280;61032;50.782;6.818;2023-04-09T00:17:16;101435.75;;;8.93;77.32
72892;BME280;61032;50.782;6.818;2023-04-09T00:18:16;101428.13;;;8.90;77.28
72892;BME280;61032;50.782;6.818;2023-04-09T00:19:17;101424.16;;;8.78;77.57
72892;BME280;61032;50.782;6.818;2023-04-09T00:20:17;101431.88;;;8.76;78.04
72892;BME280;61032;50.782;6.818;2023-04-09T00:21:17;101425.81;;;8.79;77.91
72892;BME280;61032;50.782;6.818;2023-04-09T00:22:19;101436.78;;;8.79;77.78
72892;BME280;61032;50.782;6.818;2023-04-09T00:23:19;101430.47;;;8.78;77.90
72892;BME280;61032;50.782;6.818;2023-04-09T00:24:20;101433.22;;;8.78;77.77
72892;BME280;61032;50.782;6.818;2023-04-09T00:25:20;101428.25;;;8.80;77.92
72892;BME280;61032;50.782;6.818;2023-04-09T00:26:21;101434.91;;;8.74;77.69
72892;BME280;61032;50.782;6.818;2023-04-09T00:27:21;101430.63;;;8.68;77.56
72892;BME280;61032;50.782;6.818;2023-04-09T00:28:21;101427.06;;;8.68;77.91
72892;BME280;61032;50.782;6.818;2023-04-09T00:29:22;101425.44;;;8.67;77.92
72892;BME280;61032;50.782;6.818;2023-04-09T00:30:22;101423.84;;;8.60;77.59
72892;BME280;61032;50.782;6.818;2023-04-09T00:31:22;101432.91;;;8.61;77.77
72892;BME280;61032;50.782;6.818;2023-04-09T00:32:23;101431.56;;;8.58;77.69
72892;BME280;61032;50.782;6.818;2023-04-09T00:33:23;101434.88;;;8.55;78.19
72892;BME280;61032;50.782;6.818;2023-04-09T00:34:23;101428.66;;;8.50;78.15
72892;BME280;61032;50.782;6.818;2023-04-09T00:35:24;101429.53;;;8.45;78.43
72892;BME280;61032;50.782;6.818;2023-04-09T00:36:25;101430.69;;;8.39;78.48
72892;BME280;61032;50.782;6.818;2023-04-09T00:37:25;101426.84;;;8.40;78.57
72892;BME280;61032;50.782;6.818;2023-04-09T00:38:26;101429.06;;;8.38;78.88
72892;BME280;61032;50.782;6.818;2023-04-09T00:39:26;101430.69;;;8.39;78.90
72892;BME280;61032;50.782;6.818;2023-04-09T00:40:27;101427.38;;;8.42;79.35
72892;BME280;61032;50.782;6.818;2023-04-09T00:41:27;101426.56;;;8.42;78.69
72892;BME280;61032;50.782;6.818;2023-04-09T00:42:33;101430.19;;;8.37;78.68
72892;BME280;61032;50.782;6.818;2023-04-09T00:43:34;101431.53;;;8.40;78.57
72892;BME280;61032;50.782;6.818;2023-04-09T00:44:35;101429.94;;;8.34;78.72
72892;BME280;61032;50.782;6.818;2023-04-09T00:45:35;101430.22;;;8.32;78.79
72892;BME280;61032;50.782;6.818;2023-04-09T00:46:36;101431.63;;;8.30;78.86
72892;BME280;61032;50.782;6.818;2023-04-09T00:47:37;101426.72;;;8.26;78.86
72892;BME280;61032;50.782;6.818;2023-04-09T00:48:38;101427.00;;;8.25;78.97
72892;BME280;61032;50.782;6.818;2023-04-09T00:49:38;101427.59;;;8.22;78.85
72892;BME280;61032;50.782;6.818;2023-04-09T00:50:39;101424.63;;;8.18;79.10
72892;BME280;61032;50.782;6.818;2023-04-09T00:51:39;101426.00;;;8.16;79.19
72892;BME280;61032;50.782;6.818;2023-04-09T00:52:40;101426.28;;;8.14;79.58
72892;BME280;61032;50.782;6.818;2023-04-09T00:53:40;101425.72;;;8.17;79.76
72892;BME280;61032;50.782;6.818;2023-04-09T00:54:42;101430.16;;;8.13;79.87
72892;BME280;61032;50.782;6.818;2023-04-09T00:55:43;101426.81;;;8.16;79.84
72892;BME280;61032;50.782;6.818;2023-04-09T00:56:45;101423.81;;;8.18;79.73
72892;BME280;61032;50.782;6.818;2023-04-09T00:57:45;101421.06;;;8.18;80.01
72892;BME280;61032;50.782;6.818;2023-04-09T00:58:46;101421.88;;;8.18;79.71
72892;BME280;61032;50.782;6.818;2023-04-09T00:59:46;101424.56;;;8.23;79.75
72892;BME280;61032;50.782;6.818;2023-04-09T01:00:46;101420.97;;;8.28;79.23
72892;BME280;61032;50.782;6.818;2023-04-09T01:01:47;101419.56;;;8.31;78.51
72892;BME280;61032;50.782;6.818;2023-04-09T01:02:48;101427.84;;;8.25;78.64
72892;BME280;61032;50.782;6.818;2023-04-09T01:03:51;101419.38;;;8.22;79.37
72892;BME280;61032;50.782;6.818;2023-04-09T01:04:52;101417.97;;;8.24;79.86
72892;BME280;61032;50.782;6.818;2023-04-09T01:07:25;101415.34;;;8.14;79.54
72892;BME280;61032;50.782;6.818;2023-04-09T01:09:40;101419.19;;;8.13;79.83
72892;BME280;61032;50.782;6.818;2023-04-09T01:10:46;101424.09;;;8.16;79.82
72892;BME280;61032;50.782;6.818;2023-04-09T01:13:06;101414.19;;;8.20;79.11
72892;BME280;61032;50.782;6.818;2023-04-09T01:15:21;101419.72;;;8.15;79.12
72892;BME280;61032;50.782;6.818;2023-04-09T01:16:24;101418.91;;;8.15;79.44
72892;BME280;61032;50.782;6.818;2023-04-09T01:17:30;101416.41;;;8.18;79.04
72892;BME280;61032;50.782;6.818;2023-04-09T01:18:59;101412.84;;;8.18;79.06
72892;BME280;61032;50.782;6.818;2023-04-09T01:20:06;101420.81;;;8.14;79.13
72892;BME280;61032;50.782;6.818;2023-04-09T01:21:13;101415.72;;;8.08;79.37
72892;BME280;61032;50.782;6.818;2023-04-09T01:22:31;101415.44;;;8.09;79.42
72892;BME280;61032;50.782;6.818;2023-04-09T01:27:02;101416.56;;;8.03;79.80
72892;BME280;61032;50.782;6.818;2023-04-09T01:29:33;101423.13;;;8.07;79.83
72892;BME280;61032;50.782;6.818;2023-04-09T01:30:34;101415.59;;;8.18;79.83
72892;BME280;61032;50.782;6.818;2023-04-09T01:31:37;101419.44;;;8.17;79.87
72892;BME280;61032;50.782;6.818;2023-04-09T01:32:39;101422.47;;;8.15;79.74
72892;BME280;61032;50.782;6.818;2023-04-09T01:33:40;101424.03;;;8.21;79.80
72892;BME280;61032;50.782;6.818;2023-04-09T01:34:41;101425.97;;;8.21;79.95
72892;BME280;61032;50.782;6.818;2023-04-09T01:35:45;101425.38;;;8.24;79.86
72892;BME280;61032;50.782;6.818;2023-04-09T01:36:51;101425.38;;;8.24;79.60
72892;BME280;61032;50.782;6.818;2023-04-09T01:37:53;101424.56;;;8.23;79.48
72892;BME280;61032;50.782;6.818;2023-04-09T01:38:55;101420.78;;;8.19;79.71
72892;BME280;61032;50.782;6.818;2023-04-09T01:39:56;101427.34;;;8.18;79.40
72892;BME280;61032;50.782;6.818;2023-04-09T01:40:58;101426.19;;;8.24;79.40
72892;BME280;61032;50.782;6.818;2023-04-09T01:41:59;101427.84;;;8.25;79.10
72892;BME280;61032;50.782;6.818;2023-04-09T01:43:04;101425.72;;;8.17;79.09
72892;BME280;61032;50.782;6.818;2023-04-09T01:44:07;101426.59;;;8.13;79.42
72892;BME280;61032;50.782;6.818;2023-04-09T01:45:09;101425.44;;;8.19;79.62
72892;BME280;61032;50.782;6.818;2023-04-09T01:46:10;101427.34;;;8.18;79.49
72892;BME280;61032;50.782;6.818;2023-04-09T01:47:12;101422.16;;;8.17;79.14
72892;BME280;61032;50.782;6.818;2023-04-09T01:48:13;101422.47;;;8.15;79.48
72892;BME280;61032;50.782;6.818;2023-04-09T01:49:16;101415.91;;;8.11;78.95
72892;BME280;61032;50.782;6.818;2023-04-09T01:50:16;101413.19;;;8.11;79.41
72892;BME280;61032;50.782;6.818;2023-04-09T01:51:17;101414.53;;;8.14;78.90
72892;BME280;61032;50.782;6.818;2023-04-09T01:52:18;101414.25;;;8.15;78.99
72892;BME280;61032;50.782;6.818;2023-04-09T01:53:19;101414.53;;;8.14;78.63
72892;BME280;61032;50.782;6.818;2023-04-09T01:54:20;101410.41;;;8.16;78.66
72892;BME280;61032;50.782;6.818;2023-04-09T01:55:20;101413.38;;;8.20;78.79
72892;BME280;61032;50.782;6.818;2023-04-09T01:56:21;101416.44;;;8.13;78.47
72892;BME280;61032;50.782;6.818;2023-04-09T01:57:21;101417.56;;;8.12;78.22
72892;BME280;61032;50.782;6.818;2023-04-09T01:58:23;101414.75;;;8.17;77.42
72892;BME280;61032;50.782;6.818;2023-04-09T01:59:24;101416.75;;;8.12;77.54
72892;BME280;61032;50.782;6.818;2023-04-09T02:00:38;101416.75;;;8.12;77.79
72892;BME280;61032;50.782;6.818;2023-04-09T02:01:49;101414.91;;;8.07;77.88
72892;BME280;61032;50.782;6.818;2023-04-09T02:03:25;101415.00;;;7.97;78.75
72892;BME280;61032;50.782;6.818;2023-04-09T02:04:36;101412.78;;;7.99;78.17
72892;BME280;61032;50.782;6.818;2023-04-09T02:05:43;101416.63;;;7.98;78.45
72892;BME280;61032;50.782;6.818;2023-04-09T02:07:05;101411.03;;;7.84;78.90
72892;BME280;61032;50.782;6.818;2023-04-09T02:08:09;101412.38;;;7.87;79.27
72892;BME280;61032;50.782;6.818;2023-04-09T02:09:11;101410.44;;;7.87;79.46
72892;BME280;61032;50.782;6.818;2023-04-09T02:10:13;101413.34;;;7.96;78.89
72892;BME280;61032;50.782;6.818;2023-04-09T02:11:17;101402.16;;;7.92;79.00
72892;BME280;61032;50.782;6.818;2023-04-09T02:12:18;101409.63;;;7.87;79.21
72892;BME280;61032;50.782;6.818;2023-04-09T02:13:20;101405.03;;;7.82;79.88
72892;BME280;61032;50.782;6.818;2023-04-09T02:14:21;101406.63;;;7.88;79.62
72892;BME280;61032;50.782;6.818;2023-04-09T02:15:24;101418.03;;;7.96;79.59
72892;BME280;61032;50.782;6.818;2023-04-09T02:16:26;101406.78;;;7.97;79.23
72892;BME280;61032;50.782;6.818;2023-04-09T02:17:27;101403.50;;;7.95;79.19
72892;BME280;61032;50.782;6.818;2023-04-09T02:18:28;101409.28;;;7.93;78.72
72892;BME280;61032;50.782;6.818;2023-04-09T02:19:40;101403.34;;;7.86;78.63
72892;BME280;61032;50.782;6.818;2023-04-09T02:20:41;101412.66;;;7.85;79.21
72892;BME280;61032;50.782;6.818;2023-04-09T02:21:41;101405.31;;;7.81;79.31
72892;BME280;61032;50.782;6.818;2023-04-09T02:22:41;101410.75;;;7.86;78.81
72892;BME280;61032;50.782;6.818;2023-04-09T02:23:42;101407.19;;;7.85;78.92
72892;BME280;61032;50.782;6.818;2023-04-09T02:24:42;101403.34;;;7.86;78.98
72892;BME280;61032;50.782;6.818;2023-04-09T02:25:43;101405.56;;;7.84;79.26
72892;BME280;61032;50.782;6.818;2023-04-09T02:26:43;101395.47;;;7.80;79.19
72892;BME280;61032;50.782;6.818;2023-04-09T02:27:43;101398.19;;;7.80;79.74
72892;BME280;61032;50.782;6.818;2023-04-09T02:28:44;101398.50;;;7.78;79.63
72892;BME280;61032;50.782;6.818;2023-04-09T02:29:45;101402.03;;;7.79;79.54
72892;BME280;61032;50.782;6.818;2023-04-09T02:30:45;101399.56;;;7.82;79.62
72892;BME280;61032;50.782;6.818;2023-04-09T02:31:45;101403.69;;;7.80;79.81
72892;BME280;61032;50.782;6.818;2023-04-09T02:32:45;101397.38;;;7.79;79.17
72892;BME280;61032;50.782;6.818;2023-04-09T02:33:46;101403.09;;;7.83;79.27
72892;BME280;61032;50.782;6.818;2023-04-09T02:34:46;101400.09;;;7.84;79.50
72892;BME280;61032;50.782;6.818;2023-04-09T02:35:46;101407.19;;;7.85;79.07
72892;BME280;61032;50.782;6.818;2023-04-09T02:36:47;101394.84;;;7.88;79.32
72892;BME280;61032;50.782;6.818;2023-04-09T02:37:47;101398.31;;;7.93;79.05
72892;BME280;61032;50.782;6.818;2023-04-09T02:38:47;101396.94;;;7.96;79.10
72892;BME280;61032;50.782;6.818;2023-04-09T02:39:47;101399.44;;;7.92;78.51
72892;BME280;61032;50.782;6.818;2023-04-09T02:40:48;101408.56;;;7.83;78.42
72892;BME280;61032;50.782;6.818;2023-04-09T02:41:48;101402.63;;;7.76;78.25
72892;BME280;61032;50.782;6.818;2023-04-09T02:42:50;101398.28;;;7.70;78.10
72892;BME280;61032;50.782;6.818;2023-04-09T02:43:50;101402.19;;;7.64;78.70
72892;BME280;61032;50.782;6.818;2023-04-09T02:44:51;101396.44;;;7.65;78.30
72892;BME280;61032;50.782;6.818;2023-04-09T02:45:51;101396.44;;;7.65;78.67
72892;BME280;61032;50.782;6.818;2023-04-09T02:46:51;101395.41;;;7.56;79.04
72892;BME280;61032;50.782;6.818;2023-04-09T02:47:52;101391.88;;;7.55;79.21
72892;BME280;61032;50.782;6.818;2023-04-09T02:48:52;101395.25;;;7.47;78.76
72892;BME280;61032;50.782;6.818;2023-04-09T02:49:52;101396.09;;;7.43;79.06
72892;BME280;61032;50.782;6.818;2023-04-09T02:50:53;101393.13;;;7.39;79.07
72892;BME280;61032;50.782;6.818;2023-04-09T02:51:53;101395.56;;;7.41;79.10
72892;BME280;61032;50.782;6.818;2023-04-09T02:52:53;101386.25;;;7.42;79.47
72892;BME280;61032;50.782;6.818;2023-04-09T02:53:54;101387.91;;;7.43;79.14
72892;BME280;61032;50.782;6.818;2023-04-09T02:54:54;101396.38;;;7.41;78.89
72892;BME280;61032;50.782;6.818;2023-04-09T02:55:54;101395.00;;;7.44;78.97
72892;BME280;61032;50.782;6.818;2023-04-09T02:56:55;101392.88;;;7.36;78.70
72892;BME280;61032;50.782;6.818;2023-04-09T02:57:55;101398.09;;;7.32;78.44
72892;BME280;61032;50.782;6.818;2023-04-09T02:58:56;101393.72;;;7.31;78.49
72892;BME280;61032;50.782;6.818;2023-04-09T02:59:56;101393.44;;;7.33;77.63
72892;BME280;61032;50.782;6.818;2023-04-09T03:00:56;101390.50;;;7.24;77.64
72892;BME280;61032;50.782;6.818;2023-04-09T03:01:57;101388.38;;;7.16;77.85
72892;BME280;61032;50.782;6.818;2023-04-09T03:02:57;101394.41;;;7.13;79.02
72892;BME280;61032;50.782;6.818;2023-04-09T03:03:57;101397.69;;;7.15;79.10
72892;BME280;61032;50.782;6.818;2023-04-09T03:04:58;101392.75;;;7.17;79.28
72892;BME280;61032;50.782;6.818;2023-04-09T03:05:58;101386.22;;;7.13;79.07
72892;BME280;61032;50.782;6.818;2023-04-09T03:06:58;101392.78;;;7.12;79.40
72892;BME280;61032;50.782;6.818;2023-04-09T03:07:58;101388.94;;;7.13;79.34
72892;BME280;61032;50.782;6.818;2023-04-09T03:08:59;101386.56;;;7.06;79.16
72892;BME280;61032;50.782;6.818;2023-04-09T03:09:59;101392.34;;;6.95;80.08
72892;BME280;61032;50.782;6.818;2023-04-09T03:10:59;101386.91;;;6.95;79.97
72892;BME280;61032;50.782;6.818;2023-04-09T03:12:00;101381.41;;;7.00;79.31
72892;BME280;61032;50.782;6.818;2023-04-09T03:13:01;101386.31;;;7.03;79.45
72892;BME280;61032;50.782;6.818;2023-04-09T03:14:01;101375.91;;;7.05;79.50
72892;BME280;61032;50.782;6.818;2023-04-09T03:15:01;101375.91;;;7.05;79.71
72892;BME280;61032;50.782;6.818;2023-04-09T03:16:03;101378.09;;;7.03;80.24
72892;BME280;61032;50.782;6.818;2023-04-09T03:17:04;101377.59;;;6.96;80.08
72892;BME280;61032;50.782;6.818;2023-04-09T03:18:04;101375.13;;;6.99;79.50
72892;BME280;61032;50.782;6.818;2023-04-09T03:19:05;101380.31;;;7.01;79.70
72892;BME280;61032;50.782;6.818;2023-04-09T03:20:06;101374.28;;;7.04;79.29
72892;BME280;61032;50.782;6.818;2023-04-09T03:21:07;101377.81;;;7.04;79.77
72892;BME280;61032;50.782;6.818;2023-04-09T03:22:07;101371.47;;;7.09;78.89
72892;BME280;61032;50.782;6.818;2023-04-09T03:23:09;101372.28;;;7.09;79.04
72892;BME280;61032;50.782;6.818;2023-04-09T03:24:09;101374.28;;;7.04;78.94
72892;BME280;61032;50.782;6.818;2023-04-09T03:25:09;101364.72;;;7.01;78.26
72892;BME280;61032;50.782;6.818;2023-04-09T03:26:10;101374.84;;;7.01;78.27
72892;BME280;61032;50.782;6.818;2023-04-09T03:27:10;101372.69;;;6.93;78.38
72892;BME280;61032;50.782;6.818;2023-04-09T03:28:10;101377.56;;;7.01;78.95
72892;BME280;61032;50.782;6.818;2023-04-09T03:29:11;101379.19;;;7.02;78.32
72892;BME280;61032;50.782;6.818;2023-04-09T03:30:11;101381.94;;;7.02;79.06
72892;BME280;61032;50.782;6.818;2023-04-09T03:31:11;101378.13;;;6.98;79.01
72892;BME280;61032;50.782;6.818;2023-04-09T03:32:13;101383.88;;;6.96;78.11
72892;BME280;61032;50.782;6.818;2023-04-09T03:33:13;101373.25;;;6.89;78.60
72892;BME280;61032;50.782;6.818;2023-04-09T03:34:13;101372.72;;;6.87;79.12
72892;BME280;61032;50.782;6.818;2023-04-09T03:35:14;101376.59;;;6.81;78.83
72892;BME280;61032;50.782;6.818;2023-04-09T03:36:14;101374.47;;;6.73;78.79
72892;BME280;61032;50.782;6.818;2023-04-09T03:37:15;101377.72;;;6.80;78.76
72892;BME280;61032;50.782;6.818;2023-04-09T03:38:15;101378.25;;;6.82;78.95
72892;BME280;61032;50.782;6.818;2023-04-09T03:39:15;101378.56;;;6.76;78.53
72892;BME280;61032;50.782;6.818;2023-04-09T03:40:15;101381.81;;;6.78;77.78
72892;BME280;61032;50.782;6.818;2023-04-09T03:41:16;101376.91;;;6.75;77.81
72892;BME280;61032;50.782;6.818;2023-04-09T03:42:16;101370.72;;;6.64;78.26
72892;BME280;61032;50.782;6.818;2023-04-09T03:43:17;101377.78;;;6.65;77.78
72892;BME280;61032;50.782;6.818;2023-04-09T03:44:17;101378.31;;;6.67;77.90
72892;BME280;61032;50.782;6.818;2023-04-09T03:45:17;101367.44;;;6.62;78.01
72892;BME280;61032;50.782;6.818;2023-04-09T03:46:18;101371.75;;;6.68;77.78
72892;BME280;61032;50.782;6.818;2023-04-09T03:47:18;101372.84;;;6.67;77.49
72892;BME280;61032;50.782;6.818;2023-04-09T03:48:18;101366.53;;;6.72;77.84
72892;BME280;61032;50.782;6.818;2023-04-09T03:49:19;101375.56;;;6.72;77.80
72892;BME280;61032;50.782;6.818;2023-04-09T03:50:19;101370.63;;;6.74;78.00
72892;BME280;61032;50.782;6.818;2023-04-09T03:51:20;101369.03;;;6.68;77.74
72892;BME280;61032;50.782;6.818;2023-04-09T03:52:20;101364.16;;;6.60;77.47
72892;BME280;61032;50.782;6.818;2023-04-09T03:53:20;101361.44;;;6.60;77.88
72892;BME280;61032;50.782;6.818;2023-04-09T03:54:21;101367.44;;;6.62;77.78
72892;BME280;61032;50.782;6.818;2023-04-09T03:55:21;101369.59;;;6.65;77.31
72892;BME280;61032;50.782;6.818;2023-04-09T03:56:21;101367.44;;;6.62;77.04
72892;BME280;61032;50.782;6.818;2023-04-09T03:57:22;101366.66;;;6.51;77.27
72892;BME280;61032;50.782;6.818;2023-04-09T03:58:22;101369.41;;;6.51;76.80
72892;BME280;61032;50.782;6.818;2023-04-09T03:59:23;101370.50;;;6.45;76.67
72892;BME280;61032;50.782;6.818;2023-04-09T04:00:23;101372.22;;;6.36;78.16
72892;BME280;61032;50.782;6.818;2023-04-09T04:01:24;101365.41;;;6.34;78.09
72892;BME280;61032;50.782;6.818;2023-04-09T04:02:24;101364.84;;;6.37;78.83
72892;BME280;61032;50.782;6.818;2023-04-09T04:03:26;101369.19;;;6.43;78.65
72892;BME280;61032;50.782;6.818;2023-04-09T04:04:27;101361.50;;;6.45;78.89
72892;BME280;61032;50.782;6.818;2023-04-09T04:05:27;101369.13;;;6.48;78.31
72892;BME280;61032;50.782;6.818;2023-04-09T04:06:27;101366.13;;;6.49;78.26
72892;BME280;61032;50.782;6.818;2023-04-09T04:07:28;101367.22;;;6.48;78.04
72892;BME280;61032;50.782;6.818;2023-04-09T04:08:28;101366.97;;;6.45;78.46
72892;BME280;61032;50.782;6.818;2023-04-09T04:09:29;101366.50;;;6.33;78.43
72892;BME280;61032;50.782;6.818;2023-04-09T04:10:29;101364.84;;;6.37;77.87
72892;BME280;61032;50.782;6.818;2023-04-09T04:11:29;101367.84;;;6.35;77.76
72892;BME280;61032;50.782;6.818;2023-04-09T04:12:30;101357.75;;;6.31;78.03
72892;BME280;61032;50.782;6.818;2023-04-09T04:13:32;101368.69;;;6.26;77.26
72892;BME280;61032;50.782;6.818;2023-04-09T04:14:32;101371.22;;;6.17;78.48
72892;BME280;61032;50.782;6.818;2023-04-09T04:15:33;101370.66;;;6.20;78.87
72892;BME280;61032;50.782;6.818;2023-04-09T04:16:39;101358.38;;;6.23;78.26
72892;BME280;61032;50.782;6.818;2023-04-09T04:17:40;101360.56;;;6.20;78.90
72892;BME280;61032;50.782;6.818;2023-04-09T04:18:40;101364.09;;;6.21;78.80
72892;BME280;61032;50.782;6.818;2023-04-09T04:19:40;101358.91;;;6.19;79.19
72892;BME280;61032;50.782;6.818;2023-04-09T04:20:41;101361.59;;;6.25;79.14
72892;BME280;61032;50.782;6.818;2023-04-09T04:21:41;101355.59;;;6.28;79.63
72892;BME280;61032;50.782;6.818;2023-04-09T04:22:41;101362.97;;;6.27;79.34
72892;BME280;61032;50.782;6.818;2023-04-09T04:23:42;101360.50;;;6.31;80.20
72892;BME280;61032;50.782;6.818;2023-04-09T04:24:42;101362.66;;;6.34;79.24
72892;BME280;61032;50.782;6.818;2023-04-09T04:25:42;101365.69;;;6.32;79.25
72892;BME280;61032;50.782;6.818;2023-04-09T04:26:42;101362.94;;;6.32;79.28
72892;BME280;61032;50.782;6.818;2023-04-09T04:27:43;101361.28;;;6.36;79.58
72892;BME280;61032;50.782;6.818;2023-04-09T04:28:43;101358.81;;;6.40;79.81
72892;BME280;61032;50.782;6.818;2023-04-09T04:29:43;101364.28;;;6.40;79.29
72892;BME280;61032;50.782;6.818;2023-04-09T04:30:44;101363.22;;;6.36;79.26
72892;BME280;61032;50.782;6.818;2023-04-09T04:31:44;101359.09;;;6.38;79.78
72892;BME280;61032;50.782;6.818;2023-04-09T04:32:45;101353.91;;;6.42;79.45
72892;BME280;61032;50.782;6.818;2023-04-09T04:33:45;101362.31;;;6.45;80.10
72892;BME280;61032;50.782;6.818;2023-04-09T04:34:48;101357.13;;;6.49;80.18
72892;BME280;61032;50.782;6.818;2023-04-09T04:35:49;101356.84;;;6.50;79.83
72892;BME280;61032;50.782;6.818;2023-04-09T04:36:49;101363.09;;;6.56;79.83
72892;BME280;61032;50.782;6.818;2023-04-09T04:37:49;101367.19;;;6.59;80.42
72892;BME280;61032;50.782;6.818;2023-04-09T04:38:50;101367.44;;;6.62;80.87
72892;BME280;61032;50.782;6.818;2023-04-09T04:39:50;101368.50;;;6.66;81.03
72892;BME280;61032;50.782;6.818;2023-04-09T04:40:51;101364.91;;;6.71;81.38
72892;BME280;61032;50.782;6.818;2023-04-09T04:41:51;101370.63;;;6.74;81.51
72892;BME280;61032;50.782;6.818;2023-04-09T04:42:51;101370.06;;;6.77;81.67
72892;BME280;61032;50.782;6.818;2023-04-09T04:43:52;101370.88;;;6.83;80.77
72892;BME280;61032;50.782;6.818;2023-04-09T04:44:52;101368.66;;;6.85;81.47
72892;BME280;61032;50.782;6.818;2023-04-09T04:45:53;101368.66;;;6.85;81.47
72892;BME280;61032;50.782;6.818;2023-04-09T04:46:53;101364.78;;;6.91;81.46
72892;BME280;61032;50.782;6.818;2023-04-09T04:47:53;101371.03;;;6.97;80.82
72892;BME280;61032;50.782;6.818;2023-04-09T04:48:54;101371.81;;;7.02;79.67
72892;BME280;61032;50.782;6.818;2023-04-09T04:49:54;101369.41;;;6.96;78.42
72892;BME280;61032;50.782;6.818;2023-04-09T04:50:59;101366.81;;;6.75;77.78
72892;BME280;61032;50.782;6.818;2023-04-09T04:51:59;101370.22;;;6.52;77.68
72892;BME280;61032;50.782;6.818;2023-04-09T04:53:00;101365.41;;;6.34;78.07
72892;BME280;61032;50.782;6.818;2023-04-09T04:54:00;101369.22;;;6.33;78.65
72892;BME280;61032;50.782;6.818;2023-04-09T04:55:00;101378.50;;;6.32;78.43
72892;BME280;61032;50.782;6.818;2023-04-09T04:56:01;101369.84;;;6.19;79.40
72892;BME280;61032;50.782;6.818;2023-04-09T04:57:01;101370.94;;;6.18;79.90
72892;BME280;61032;50.782;6.818;2023-04-09T04:58:02;101369.31;;;6.17;79.78
72892;BME280;61032;50.782;6.818;2023-04-09T04:59:02;101376.41;;;6.18;79.73
72892;BME280;61032;50.782;6.818;2023-04-09T05:00:03;101376.13;;;6.20;80.10
72892;BME280;61032;50.782;6.818;2023-04-09T05:01:03;101367.09;;;6.19;80.62
72892;BME280;61032;50.782;6.818;2023-04-09T05:02:07;101375.25;;;6.25;79.65
72892;BME280;61032;50.782;6.818;2023-04-09T05:03:07;101371.19;;;6.22;79.66
72892;BME280;61032;50.782;6.818;2023-04-09T05:04:07;101367.59;;;6.27;79.75
72892;BME280;61032;50.782;6.818;2023-04-09T05:05:08;101377.41;;;6.33;79.35
72892;BME280;61032;50.782;6.818;2023-04-09T05:06:08;101373.84;;;6.37;78.50
72892;BME280;61032;50.782;6.818;2023-04-09T05:07:09;101367.56;;;6.42;78.49
72892;BME280;61032;50.782;6.818;2023-04-09T05:08:09;101373.56;;;6.39;78.33
72892;BME280;61032;50.782;6.818;2023-04-09T05:09:10;101379.03;;;6.39;78.30
72892;BME280;61032;50.782;6.818;2023-04-09T05:10:10;101374.59;;;6.48;77.58
72892;BME280;61032;50.782;6.818;2023-04-09T05:11:11;101375.69;;;6.52;77.85
72892;BME280;61032;50.782;6.818;2023-04-09T05:12:12;101375.41;;;6.53;77.31
72892;BME280;61032;50.782;6.818;2023-04-09T05:13:14;101372.41;;;6.50;77.59
72892;BME280;61032;50.782;6.818;2023-04-09T05:14:14;101382.25;;;6.51;77.42
72892;BME280;61032;50.782;6.818;2023-04-09T05:15:15;101371.59;;;6.49;77.62
72892;BME280;61032;50.782;6.818;2023-04-09T05:16:16;101378.16;;;6.48;77.83
72892;BME280;61032;50.782;6.818;2023-04-09T05:17:17;101379.78;;;6.49;77.27
72892;BME280;61032;50.782;6.818;2023-04-09T05:18:17;101379.78;;;6.49;77.29
72892;BME280;61032;50.782;6.818;2023-04-09T05:19:18;101373.78;;;6.47;77.70
72892;BME280;61032;50.782;6.818;2023-04-09T05:20:18;101373.50;;;6.49;77.70
72892;BME280;61032;50.782;6.818;2023-04-09T05:21:18;101381.75;;;6.44;78.09
72892;BME280;61032;50.782;6.818;2023-04-09T05:22:19;101382.78;;;6.48;77.82
72892;BME280;61032;50.782;6.818;2023-04-09T05:23:19;101384.16;;;6.45;77.52
72892;BME280;61032;50.782;6.818;2023-04-09T05:24:20;101381.44;;;6.45;77.81
72892;BME280;61032;50.782;6.818;2023-04-09T05:25:20;101376.50;;;6.52;77.76
72892;BME280;61032;50.782;6.818;2023-04-09T05:26:21;101381.41;;;6.55;77.55
72892;BME280;61032;50.782;6.818;2023-04-09T05:27:21;101382.19;;;6.61;77.79
72892;BME280;61032;50.782;6.818;2023-04-09T05:28:23;101380.28;;;6.62;78.08
72892;BME280;61032;50.782;6.818;2023-04-09T05:29:23;101378.66;;;6.61;77.72
72892;BME280;61032;50.782;6.818;2023-04-09T05:30:23;101377.84;;;6.55;78.26
72892;BME280;61032;50.782;6.818;2023-04-09T05:31:24;101384.69;;;6.52;78.53
72892;BME280;61032;50.782;6.818;2023-04-09T05:32:24;101385.78;;;6.57;78.83
72892;BME280;61032;50.782;6.818;2023-04-09T05:33:24;101375.66;;;6.57;79.14
72892;BME280;61032;50.782;6.818;2023-04-09T05:34:25;101378.66;;;6.61;78.65